Time;durP1;ratioP1;P1;durP2;ratioP2;P2;SDS_P1;SDS_P2;PMS_P1;PMS_P2;Temp;Humidity;BMP_temperature;BMP_pressure;BME280_temperature;BME280_humidity;BME280_pressure;Samples;Min_cycle;Max_cycle;Signal;HPM_P1;HPM_P2
2023/07/26 02:20:00;;;;;;;5.17;2.40;;;13.00;99.90;;;;;;3396038;26;20230;-42
2023/07/26 02:22:25;;;;;;;8.17;2.17;;;13.00;99.90;;;;;;5118303;28;20549;-44
2023/07/26 02:24:57;;;;;;;4.30;2.10;;;12.90;99.90;;;;;;5099523;28;20190;-42
2023/07/26 17:26:57;;;;;;;3.43;2.30;;;23.80;99.90;;;;;;5090694;28;20279;-44
2023/07/26 17:29:23;;;;;;;3.43;2.27;;;23.70;99.90;;;;;;5093839;28;20249;-43
2023/07/26 17:31:53;;;;;;;3.27;2.23;;;23.70;99.90;;;;;;5076234;28;20221;-41
2023/07/26 17:34:19;;;;;;;3.83;2.53;;;23.70;99.90;;;;;;5075723;28;20206;-48
2023/07/26 17:36:45;;;;;;;3.23;2.50;;;23.60;99.90;;;;;;5075875;28;20206;-42
2023/07/26 17:39:11;;;;;;;3.67;2.67;;;23.50;99.90;;;;;;5077295;28;20218;-43
2023/07/26 17:41:37;;;;;;;5.63;2.63;;;23.40;99.90;;;;;;5078920;28;20665;-41
2023/07/26 17:44:04;;;;;;;4.93;2.53;;;23.20;99.90;;;;;;5097218;28;20191;-41
2023/07/26 17:46:30;;;;;;;4.33;2.50;;;23.10;1.00;;;;;;5078780;28;20211;-42
2023/07/26 17:48:55;;;;;;;3.70;2.70;;;23.00;1.00;;;;;;5078888;28;20225;-41
2023/07/26 17:51:21;;;;;;;3.30;2.47;;;22.90;1.00;;;;;;5097019;28;20187;-41
2023/07/26 17:53:47;;;;;;;2.87;2.00;;;22.80;1.00;;;;;;5096833;28;20678;-42
2023/07/26 17:56:16;;;;;;;3.33;2.60;;;22.70;1.00;;;;;;5097546;28;20612;-42
2023/07/26 17:58:42;;;;;;;7.90;2.40;;;22.60;1.00;;;;;;5096721;28;20194;-39
2023/07/26 18:01:08;;;;;;;4.50;2.30;;;22.50;90.20;;;;;;5078338;28;20186;-42
2023/07/26 18:03:34;;;;;;;5.40;2.60;;;22.40;99.90;;;;;;5096494;28;20186;-42
2023/07/26 18:06:04;;;;;;;3.60;2.30;;;22.30;99.90;;;;;;5078084;28;20211;-43
2023/07/26 18:08:33;;;;;;;4.83;2.60;;;22.20;99.90;;;;;;5078577;28;20194;-42
2023/07/26 18:10:59;;;;;;;3.83;2.57;;;22.10;99.90;;;;;;5096853;28;20202;-41
2023/07/26 18:13:25;;;;;;;5.13;2.73;;;22.10;99.90;;;;;;5078592;28;20217;-42
2023/07/26 18:16:10;;;;;;;3.60;2.67;;;22.10;1.00;;;;;;5078296;28;20268;-42
2023/07/26 18:18:37;;;;;;;2.43;2.23;;;22.10;1.00;;;;;;5096508;28;20202;-39
2023/07/26 18:21:04;;;;;;;3.93;2.40;;;22.00;1.00;;;;;;5078350;28;20186;-42
2023/07/26 18:23:31;;;;;;;3.70;2.57;;;22.00;1.00;;;;;;5078135;28;20187;-40
2023/07/26 18:25:58;;;;;;;3.40;2.27;;;21.90;1.00;;;;;;5078045;28;20230;-41
2023/07/26 18:28:24;;;;;;;6.00;2.90;;;21.90;1.00;;;;;;5078153;28;20274;-42
2023/07/26 18:31:03;;;;;;;10.63;2.93;;;21.90;99.90;;;;;;5096444;28;20171;-40
2023/07/26 18:33:29;;;;;;;5.33;2.23;;;21.90;99.90;;;;;;5061415;28;20240;-41
2023/07/26 18:35:55;;;;;;;3.80;2.60;;;21.80;99.90;;;;;;5096392;28;20206;-42
2023/07/26 18:38:21;;;;;;;4.20;2.73;;;21.60;1.00;;;;;;5096328;28;20182;-41
2023/07/26 18:40:51;;;;;;;3.40;2.50;;;21.60;1.00;;;;;;5077744;28;20213;-40
2023/07/26 18:43:17;;;;;;;5.40;2.47;;;21.50;1.00;;;;;;5096819;28;20214;-41
2023/07/26 18:45:44;;;;;;;5.13;2.27;;;21.50;99.90;;;;;;5077640;28;20264;-41
2023/07/26 18:48:10;;;;;;;4.80;2.63;;;21.40;1.00;;;;;;5095996;28;20261;-41
2023/07/26 18:50:38;;;;;;;4.27;2.17;;;21.20;1.00;;;;;;5076974;28;20247;-40
2023/07/26 18:53:05;;;;;;;4.40;2.20;;;21.20;25.10;;;;;;5077667;28;20203;-41
2023/07/26 18:55:33;;;;;;;4.83;2.30;;;21.20;99.90;;;;;;5077478;28;20237;-41
2023/07/26 18:57:59;;;;;;;2.97;2.37;;;21.10;44.70;;;;;;5095828;28;20179;-38
2023/07/26 19:00:26;;;;;;;3.90;2.37;;;21.10;99.90;;;;;;5077616;28;20206;-42
2023/07/26 19:02:51;;;;;;;3.17;1.90;;;21.00;99.90;;;;;;5077668;28;20553;-41
2023/07/26 19:05:19;;;;;;;3.90;2.17;;;21.00;1.00;;;;;;5095627;28;20214;-41
2023/07/26 19:07:45;;;;;;;2.90;2.03;;;20.90;1.00;;;;;;5077602;28;20233;-43
2023/07/26 19:10:11;;;;;;;3.40;2.20;;;20.80;1.00;;;;;;5096069;28;20195;-41
2023/07/26 19:12:37;;;;;;;2.63;1.97;;;20.80;99.90;;;;;;5095384;28;20206;-42
2023/07/26 19:15:03;;;;;;;4.77;2.13;;;20.70;99.90;;;;;;5095705;28;20163;-40
2023/07/26 19:17:29;;;;;;;2.63;2.20;;;20.60;1.00;;;;;;5077209;28;20258;-39
2023/07/26 19:19:55;;;;;;;3.47;2.00;;;20.60;1.00;;;;;;5077482;28;20183;-41
2023/07/26 19:22:22;;;;;;;3.40;2.20;;;20.50;56.10;;;;;;5077341;28;20195;-40
2023/07/26 19:24:48;;;;;;;6.60;2.77;;;20.40;99.90;;;;;;5077331;28;20684;-40
2023/07/26 19:27:14;;;;;;;2.90;2.30;;;20.40;1.00;;;;;;5077017;28;20290;-42
2023/07/26 19:29:40;;;;;;;5.67;2.50;;;20.30;1.00;;;;;;5077243;28;20193;-40
2023/07/26 19:32:07;;;;;;;3.80;2.63;;;20.30;1.00;;;;;;5095137;28;20179;-44
2023/07/26 19:34:33;;;;;;;3.60;1.93;;;20.20;1.00;;;;;;5095231;28;20159;-40
2023/07/26 19:36:59;;;;;;;11.30;2.90;;;20.20;1.00;;;;;;5095475;28;20294;-42
2023/07/26 19:39:24;;;;;;;4.63;1.90;;;20.10;30.70;;;;;;5077132;28;20187;-42
2023/07/26 19:41:50;;;;;;;5.40;2.20;;;20.00;1.00;;;;;;5094966;28;20187;-40
2023/07/26 19:44:17;;;;;;;2.83;2.40;;;20.00;1.00;;;;;;5095200;28;20220;-43
2023/07/26 19:46:42;;;;;;;3.60;2.70;;;19.90;69.50;;;;;;5076757;28;20211;-42
2023/07/26 19:49:09;;;;;;;6.10;2.83;;;19.80;99.90;;;;;;5076863;28;20187;-39
2023/07/26 19:51:35;;;;;;;3.00;2.70;;;19.80;99.90;;;;;;5076400;28;20218;-41
2023/07/26 19:54:00;;;;;;;6.80;2.73;;;19.70;99.90;;;;;;5076509;28;20237;-42
2023/07/26 19:56:26;;;;;;;6.57;3.23;;;19.60;99.90;;;;;;5076404;28;20203;-41
2023/07/26 19:58:52;;;;;;;2.73;2.10;;;19.50;1.00;;;;;;5076463;28;20259;-41
2023/07/26 20:01:18;;;;;;;3.00;2.37;;;19.50;1.00;;;;;;5076601;28;20179;-40
2023/07/26 20:03:45;;;;;;;4.67;2.53;;;19.40;45.90;;;;;;5094553;28;20234;-41
2023/07/26 20:06:11;;;;;;;2.43;2.10;;;19.30;99.90;;;;;;5076274;28;20256;-41
2023/07/26 20:08:37;;;;;;;5.93;2.53;;;19.20;99.90;;;;;;5094689;28;20194;-41
2023/07/26 20:11:03;;;;;;;3.03;2.00;;;19.10;1.00;;;;;;5076194;28;20187;-41
2023/07/26 20:13:29;;;;;;;4.10;2.33;;;19.00;1.00;;;;;;5094239;28;20561;-42
2023/07/26 20:15:55;;;;;;;3.47;2.23;;;19.00;1.00;;;;;;5076040;28;20213;-41
2023/07/26 20:18:21;;;;;;;4.70;2.40;;;18.90;1.00;;;;;;5075935;28;20206;-39
2023/07/26 20:20:47;;;;;;;3.10;2.40;;;18.90;38.60;;;;;;5076064;28;20183;-43
2023/07/26 20:23:13;;;;;;;3.67;1.70;;;18.80;99.90;;;;;;5094176;28;20549;-41
2023/07/26 20:25:39;;;;;;;4.23;2.70;;;18.80;99.90;;;;;;5075802;28;20206;-39
2023/07/26 20:28:05;;;;;;;4.53;2.23;;;18.70;1.00;;;;;;5075896;28;20193;-41
2023/07/26 20:30:33;;;;;;;3.40;1.97;;;18.70;1.00;;;;;;5094157;28;20189;-40
2023/07/26 20:32:59;;;;;;;3.97;2.13;;;18.60;1.00;;;;;;5094561;28;20531;-40
2023/07/26 20:35:25;;;;;;;3.07;2.50;;;18.60;1.00;;;;;;5075804;28;20265;-41
2023/07/26 20:37:51;;;;;;;2.30;1.93;;;18.50;1.00;;;;;;5075883;28;20183;-41
2023/07/26 20:40:18;;;;;;;3.17;2.00;;;18.50;1.00;;;;;;5075897;28;20274;-42
2023/07/26 20:42:43;;;;;;;3.47;1.90;;;18.50;86.60;;;;;;5094248;28;20190;-42
2023/07/26 20:45:10;;;;;;;2.33;2.07;;;18.50;99.20;;;;;;5077892;28;20191;-41
2023/07/26 20:47:36;;;;;;;2.70;2.10;;;18.40;54.20;;;;;;5076847;28;20236;-41
2023/07/26 20:50:01;;;;;;;3.27;2.13;;;18.40;99.90;;;;;;5076357;28;20222;-46
2023/07/26 20:52:28;;;;;;;4.23;2.20;;;18.40;99.90;;;;;;5095134;28;20234;-40
2023/07/26 20:54:54;;;;;;;3.97;2.40;;;18.40;56.70;;;;;;5076461;28;20718;-42
2023/07/26 20:57:19;;;;;;;3.90;2.07;;;18.30;99.90;;;;;;5076500;28;20245;-42
2023/07/26 20:59:45;;;;;;;2.87;2.20;;;18.30;99.90;;;;;;5076612;28;20218;-41
2023/07/26 21:02:11;;;;;;;3.17;2.00;;;18.20;99.90;;;;;;5076391;28;20187;-41
2023/07/26 21:04:36;;;;;;;2.90;2.03;;;18.20;99.90;;;;;;5094778;28;20183;-41
2023/07/26 21:07:02;;;;;;;2.97;1.90;;;18.20;99.90;;;;;;5076562;28;20202;-46
2023/07/26 21:13:14;;;;;;;2.67;2.17;;;18.20;99.90;;;;;;5085245;28;20229;-45
2023/07/26 21:15:44;;;;;;;2.50;2.10;;;18.10;1.00;;;;;;5097429;28;20199;-45
2023/07/26 21:18:10;;;;;;;2.27;2.00;;;18.00;1.00;;;;;;5079832;28;20669;-46
2023/07/26 21:20:36;;;;;;;2.50;1.97;;;18.00;1.00;;;;;;5097728;28;20228;-44
2023/07/26 21:23:02;;;;;;;2.47;1.97;;;18.00;1.00;;;;;;5079564;28;20214;-45
2023/07/26 21:25:27;;;;;;;3.57;2.40;;;17.90;1.00;;;;;;5079499;28;20210;-44
2023/07/26 21:27:54;;;;;;;6.60;2.70;;;17.90;1.00;;;;;;5097484;28;20649;-45
2023/07/26 21:30:22;;;;;;;3.10;2.23;;;17.80;1.00;;;;;;5079448;28;20201;-46
2023/07/26 21:32:48;;;;;;;3.63;2.50;;;17.80;1.00;;;;;;5097559;28;20211;-45
2023/07/26 21:35:14;;;;;;;5.47;2.47;;;17.70;1.00;;;;;;5079039;28;20194;-45
2023/07/26 21:37:39;;;;;;;3.50;2.27;;;17.70;1.00;;;;;;5097690;28;20552;-45
2023/07/26 21:40:06;;;;;;;4.20;2.20;;;17.60;99.90;;;;;;5079169;28;20194;-45
2023/07/26 21:42:32;;;;;;;5.03;2.70;;;17.60;93.70;;;;;;5079078;28;20183;-44
2023/07/26 21:44:59;;;;;;;6.47;2.27;;;17.50;99.90;;;;;;5079006;28;20186;-46
2023/07/26 21:47:27;;;;;;;5.90;2.40;;;17.50;99.90;;;;;;5079009;28;20187;-45
2023/07/26 21:49:58;;;;;;;4.73;2.10;;;17.50;92.00;;;;;;5078726;28;20555;-45
2023/07/26 21:52:24;;;;;;;5.87;2.30;;;17.50;53.80;;;;;;5098009;28;22213;-45
2023/07/26 21:54:50;;;;;;;9.67;2.60;;;17.40;99.90;;;;;;5097513;28;20357;-44
2023/07/26 21:57:16;;;;;;;4.10;2.07;;;17.40;99.90;;;;;;5096950;28;20658;-45
2023/07/26 21:59:42;;;;;;;4.83;2.53;;;17.40;99.90;;;;;;5096906;28;20193;-45
2023/07/26 22:02:08;;;;;;;3.90;2.50;;;17.30;99.90;;;;;;5078673;28;20201;-45
2023/07/26 22:04:34;;;;;;;3.73;2.37;;;17.30;99.90;;;;;;5097038;28;20642;-45
2023/07/26 22:07:00;;;;;;;5.60;2.67;;;17.20;99.90;;;;;;5096591;28;20232;-45
2023/07/26 22:09:26;;;;;;;3.50;2.47;;;17.20;99.90;;;;;;5096675;28;20207;-44
2023/07/26 22:11:51;;;;;;;7.53;2.83;;;17.20;99.90;;;;;;5078393;28;20238;-44
2023/07/26 22:14:18;;;;;;;5.30;2.27;;;17.20;99.90;;;;;;5078364;28;20615;-44
2023/07/26 22:16:44;;;;;;;3.63;1.80;;;17.20;99.90;;;;;;5096454;28;20202;-45
2023/07/26 22:19:09;;;;;;;4.47;2.43;;;17.10;99.90;;;;;;5078701;28;20207;-45
2023/07/26 22:21:35;;;;;;;3.47;2.50;;;17.20;99.90;;;;;;5096372;28;20190;-46
2023/07/26 22:24:00;;;;;;;6.90;2.17;;;17.20;99.90;;;;;;5097062;28;20270;-44
2023/07/26 22:26:26;;;;;;;3.70;1.83;;;17.20;99.90;;;;;;5094984;28;20206;-46
2023/07/26 22:28:52;;;;;;;3.10;2.40;;;17.10;99.90;;;;;;5096518;28;20646;-45
2023/07/26 22:31:18;;;;;;;4.80;2.17;;;17.10;99.90;;;;;;5061430;28;20186;-44
2023/07/26 22:33:43;;;;;;;3.97;2.17;;;17.10;99.90;;;;;;5078100;28;20218;-46
2023/07/26 22:36:09;;;;;;;4.73;2.30;;;17.10;99.90;;;;;;5077972;28;20650;-45
2023/07/26 22:38:35;;;;;;;3.17;2.13;;;17.10;99.90;;;;;;5095972;28;20179;-44
2023/07/26 22:41:03;;;;;;;2.97;2.07;;;17.10;99.90;;;;;;5077932;28;20206;-45
2023/07/26 22:43:32;;;;;;;4.37;2.47;;;17.10;99.90;;;;;;5077870;28;20223;-46
2023/07/26 22:45:59;;;;;;;3.80;2.33;;;17.00;99.90;;;;;;5096001;28;20202;-47
2023/07/26 22:48:24;;;;;;;3.67;2.10;;;17.00;99.90;;;;;;5077739;28;20190;-44
2023/07/26 22:50:50;;;;;;;4.73;2.37;;;17.00;99.90;;;;;;5077593;28;20247;-45
2023/07/26 22:53:16;;;;;;;8.70;2.40;;;17.00;99.90;;;;;;5077750;28;20566;-45
2023/07/26 22:55:42;;;;;;;2.50;2.10;;;16.90;99.90;;;;;;5078423;28;20202;-44
2023/07/26 22:58:07;;;;;;;3.43;2.07;;;16.80;99.90;;;;;;5077613;28;20274;-46
2023/07/26 23:00:33;;;;;;;3.40;2.20;;;16.80;99.90;;;;;;5077531;28;20182;-44
2023/07/26 23:02:59;;;;;;;4.00;2.10;;;16.70;99.90;;;;;;5077434;28;20183;-46
2023/07/26 23:05:24;;;;;;;5.83;1.93;;;16.70;99.90;;;;;;5060808;28;20225;-45
2023/07/26 23:07:50;;;;;;;5.67;2.30;;;16.60;99.90;;;;;;5095611;28;20183;-45
2023/07/26 23:10:16;;;;;;;4.90;2.20;;;16.60;99.90;;;;;;5095481;28;20190;-44
2023/07/26 23:12:42;;;;;;;2.87;2.37;;;16.60;99.90;;;;;;5095646;28;20213;-43
2023/07/26 23:15:08;;;;;;;3.20;2.10;;;16.60;1.00;;;;;;5095304;28;20183;-44
2023/07/26 23:17:34;;;;;;;3.27;2.07;;;16.50;1.00;;;;;;5095565;28;20598;-45
2023/07/26 23:20:00;;;;;;;2.67;2.10;;;16.50;1.00;;;;;;5077192;28;20183;-44
2023/07/26 23:22:26;;;;;;;3.47;2.17;;;16.50;1.00;;;;;;5095384;28;20183;-44
2023/07/26 23:24:53;;;;;;;4.50;2.30;;;16.40;1.00;;;;;;5077094;28;20571;-44
2023/07/26 23:27:20;;;;;;;5.50;2.17;;;16.40;1.00;;;;;;5076945;28;20293;-45
2023/07/26 23:29:45;;;;;;;3.83;2.60;;;16.40;1.00;;;;;;5060519;28;20186;-44
2023/07/26 23:32:11;;;;;;;5.53;2.27;;;16.50;1.00;;;;;;5094991;28;20240;-45
2023/07/26 23:34:37;;;;;;;3.17;2.13;;;16.40;1.00;;;;;;5095011;28;20258;-44
2023/07/26 23:37:03;;;;;;;3.93;2.20;;;16.40;1.00;;;;;;5094545;28;20206;-45
2023/07/26 23:39:31;;;;;;;4.97;2.17;;;16.40;1.00;;;;;;5060197;28;20178;-44
2023/07/26 23:41:56;;;;;;;4.47;2.43;;;16.40;1.00;;;;;;5095254;28;20183;-44
2023/07/26 23:44:22;;;;;;;4.57;2.07;;;16.40;1.00;;;;;;5095103;28;20654;-43
2023/07/26 23:46:47;;;;;;;5.93;2.20;;;16.40;1.00;;;;;;5094812;28;20217;-44
2023/07/26 23:49:13;;;;;;;4.97;2.23;;;16.40;1.00;;;;;;5076587;28;20198;-44
2023/07/26 23:51:39;;;;;;;3.33;1.87;;;16.40;1.00;;;;;;5094613;28;20297;-44
2023/07/26 23:54:04;;;;;;;3.23;2.00;;;16.40;1.00;;;;;;5094597;28;20694;-44
2023/07/26 23:56:30;;;;;;;5.80;2.60;;;16.30;1.00;;;;;;5076287;28;20203;-45
2023/07/26 23:58:56;;;;;;;2.90;1.97;;;16.40;1.00;;;;;;5094876;28;20183;-44
